sensor_id;sensor_type;location;lat;lon;timestamp;temperature;humidity
41985;DHT22;28319;48.116;10.818;2024-02-26T00:04:57;4.90;55.70
41985;DHT22;28319;48.116;10.818;2024-02-26T00:09:59;4.70;55.90
41985;DHT22;28319;48.116;10.818;2024-02-26T00:15:01;4.70;55.90
41985;DHT22;28319;48.116;10.818;2024-02-26T00:20:05;4.50;56.20
41985;DHT22;28319;48.116;10.818;2024-02-26T00:25:09;4.50;56.10
41985;DHT22;28319;48.116;10.818;2024-02-26T00:30:13;4.60;56.20
41985;DHT22;28319;48.116;10.818;2024-02-26T00:35:16;4.60;56.00
41985;DHT22;28319;48.116;10.818;2024-02-26T00:40:21;4.70;56.40
41985;DHT22;28319;48.116;10.818;2024-02-26T00:45:22;4.70;56.20
41985;DHT22;28319;48.116;10.818;2024-02-26T00:50:26;4.60;55.70
41985;DHT22;28319;48.116;10.818;2024-02-26T00:55:28;4.50;56.30
41985;DHT22;28319;48.116;10.818;2024-02-26T01:00:30;4.50;56.20
41985;DHT22;28319;48.116;10.818;2024-02-26T01:05:33;4.60;56.00
41985;DHT22;28319;48.116;10.818;2024-02-26T01:10:35;4.60;56.10
41985;DHT22;28319;48.116;10.818;2024-02-26T01:15:37;4.60;56.30
41985;DHT22;28319;48.116;10.818;2024-02-26T01:20:40;4.50;56.00
41985;DHT22;28319;48.116;10.818;2024-02-26T01:25:42;4.50;56.00
41985;DHT22;28319;48.116;10.818;2024-02-26T01:30:44;4.50;55.90
41985;DHT22;28319;48.116;10.818;2024-02-26T01:35:48;4.40;56.30
41985;DHT22;28319;48.116;10.818;2024-02-26T01:40:50;4.50;56.00
41985;DHT22;28319;48.116;10.818;2024-02-26T01:45:51;4.40;55.80
41985;DHT22;28319;48.116;10.818;2024-02-26T01:50:55;4.30;56.40
41985;DHT22;28319;48.116;10.818;2024-02-26T01:55:57;4.30;56.70
41985;DHT22;28319;48.116;10.818;2024-02-26T02:00:59;4.30;56.70
41985;DHT22;28319;48.116;10.818;2024-02-26T02:06:04;4.30;56.90
41985;DHT22;28319;48.116;10.818;2024-02-26T02:11:07;4.30;56.60
41985;DHT22;28319;48.116;10.818;2024-02-26T02:16:12;4.30;56.70
41985;DHT22;28319;48.116;10.818;2024-02-26T02:21:15;4.20;56.90
41985;DHT22;28319;48.116;10.818;2024-02-26T02:26:18;4.20;57.20
41985;DHT22;28319;48.116;10.818;2024-02-26T02:31:21;4.20;56.80
41985;DHT22;28319;48.116;10.818;2024-02-26T02:36:24;4.40;57.10
41985;DHT22;28319;48.116;10.818;2024-02-26T02:41:26;4.20;56.90
41985;DHT22;28319;48.116;10.818;2024-02-26T02:46:30;4.20;56.80
41985;DHT22;28319;48.116;10.818;2024-02-26T02:51:35;4.20;56.70
41985;DHT22;28319;48.116;10.818;2024-02-26T02:56:37;4.20;56.90
41985;DHT22;28319;48.116;10.818;2024-02-26T03:01:39;4.10;57.40
41985;DHT22;28319;48.116;10.818;2024-02-26T03:06:42;4.10;57.40
41985;DHT22;28319;48.116;10.818;2024-02-26T03:11:44;4.10;57.40
41985;DHT22;28319;48.116;10.818;2024-02-26T03:16:46;4.20;57.30
41985;DHT22;28319;48.116;10.818;2024-02-26T03:21:49;4.20;57.20
41985;DHT22;28319;48.116;10.818;2024-02-26T03:26:51;4.00;57.10
41985;DHT22;28319;48.116;10.818;2024-02-26T03:31:53;4.00;56.90
41985;DHT22;28319;48.116;10.818;2024-02-26T03:36:56;4.00;57.30
41985;DHT22;28319;48.116;10.818;2024-02-26T03:41:58;4.00;57.10
41985;DHT22;28319;48.116;10.818;2024-02-26T03:47:00;4.00;57.20
41985;DHT22;28319;48.116;10.818;2024-02-26T03:52:04;4.00;57.10
41985;DHT22;28319;48.116;10.818;2024-02-26T03:57:06;4.10;57.30
41985;DHT22;28319;48.116;10.818;2024-02-26T04:02:08;4.00;57.20
41985;DHT22;28319;48.116;10.818;2024-02-26T04:07:11;4.00;57.60
41985;DHT22;28319;48.116;10.818;2024-02-26T04:12:14;4.00;57.00
41985;DHT22;28319;48.116;10.818;2024-02-26T04:17:16;3.90;57.20
41985;DHT22;28319;48.116;10.818;2024-02-26T04:22:19;3.90;57.20
41985;DHT22;28319;48.116;10.818;2024-02-26T04:27:21;3.90;57.20
41985;DHT22;28319;48.116;10.818;2024-02-26T04:32:23;4.00;56.90
41985;DHT22;28319;48.116;10.818;2024-02-26T04:37:26;4.10;57.10
41985;DHT22;28319;48.116;10.818;2024-02-26T04:42:31;4.10;56.60
41985;DHT22;28319;48.116;10.818;2024-02-26T04:47:33;3.70;57.00
41985;DHT22;28319;48.116;10.818;2024-02-26T04:52:36;3.80;57.50
41985;DHT22;28319;48.116;10.818;2024-02-26T04:57:38;3.90;57.70
41985;DHT22;28319;48.116;10.818;2024-02-26T05:02:40;3.90;57.80
41985;DHT22;28319;48.116;10.818;2024-02-26T05:07:43;3.70;58.20
41985;DHT22;28319;48.116;10.818;2024-02-26T05:12:45;3.70;58.60
41985;DHT22;28319;48.116;10.818;2024-02-26T05:17:48;3.60;61.70
41985;DHT22;28319;48.116;10.818;2024-02-26T05:22:51;3.70;63.00
41985;DHT22;28319;48.116;10.818;2024-02-26T05:27:53;3.50;63.10
41985;DHT22;28319;48.116;10.818;2024-02-26T05:32:55;3.20;66.70
41985;DHT22;28319;48.116;10.818;2024-02-26T05:37:58;3.20;65.00
41985;DHT22;28319;48.116;10.818;2024-02-26T05:43:00;3.40;64.50
41985;DHT22;28319;48.116;10.818;2024-02-26T05:48:03;3.50;63.90
41985;DHT22;28319;48.116;10.818;2024-02-26T05:53:06;3.40;64.90
41985;DHT22;28319;48.116;10.818;2024-02-26T05:58:08;3.50;66.10
41985;DHT22;28319;48.116;10.818;2024-02-26T06:03:10;3.40;72.70
41985;DHT22;28319;48.116;10.818;2024-02-26T06:08:13;3.50;70.20
41985;DHT22;28319;48.116;10.818;2024-02-26T06:13:15;3.50;69.60
41985;DHT22;28319;48.116;10.818;2024-02-26T06:18:17;3.60;66.30
41985;DHT22;28319;48.116;10.818;2024-02-26T06:23:20;3.70;65.80
41985;DHT22;28319;48.116;10.818;2024-02-26T06:28:22;3.70;67.90
41985;DHT22;28319;48.116;10.818;2024-02-26T06:33:24;3.30;71.80
41985;DHT22;28319;48.116;10.818;2024-02-26T06:38:27;3.40;68.80
41985;DHT22;28319;48.116;10.818;2024-02-26T06:43:29;3.40;69.40
41985;DHT22;28319;48.116;10.818;2024-02-26T06:48:31;3.30;71.50
41985;DHT22;28319;48.116;10.818;2024-02-26T06:53:34;3.40;67.80
41985;DHT22;28319;48.116;10.818;2024-02-26T06:58:36;3.60;66.80
41985;DHT22;28319;48.116;10.818;2024-02-26T07:03:40;3.80;66.10
41985;DHT22;28319;48.116;10.818;2024-02-26T07:08:43;3.80;67.90
41985;DHT22;28319;48.116;10.818;2024-02-26T07:13:45;3.90;65.00
41985;DHT22;28319;48.116;10.818;2024-02-26T07:18:47;4.00;65.50
41985;DHT22;28319;48.116;10.818;2024-02-26T07:23:50;4.10;65.00
41985;DHT22;28319;48.116;10.818;2024-02-26T07:28:52;4.30;62.80
41985;DHT22;28319;48.116;10.818;2024-02-26T07:33:54;4.30;64.70
41985;DHT22;28319;48.116;10.818;2024-02-26T07:38:57;4.20;64.90
41985;DHT22;28319;48.116;10.818;2024-02-26T07:43:59;4.40;63.40
41985;DHT22;28319;48.116;10.818;2024-02-26T07:49:01;4.50;65.00
41985;DHT22;28319;48.116;10.818;2024-02-26T07:54:04;4.40;65.30
41985;DHT22;28319;48.116;10.818;2024-02-26T07:59:06;4.40;64.20
41985;DHT22;28319;48.116;10.818;2024-02-26T08:04:08;4.60;63.80
41985;DHT22;28319;48.116;10.818;2024-02-26T08:09:12;4.60;66.00
41985;DHT22;28319;48.116;10.818;2024-02-26T08:14:14;4.60;67.00
41985;DHT22;28319;48.116;10.818;2024-02-26T08:19:16;4.90;66.20
41985;DHT22;28319;48.116;10.818;2024-02-26T08:24:19;5.10;65.50
41985;DHT22;28319;48.116;10.818;2024-02-26T08:29:21;5.30;65.20
41985;DHT22;28319;48.116;10.818;2024-02-26T08:34:23;5.50;63.60
41985;DHT22;28319;48.116;10.818;2024-02-26T08:39:26;5.60;62.90
41985;DHT22;28319;48.116;10.818;2024-02-26T08:44:28;5.70;62.80
41985;DHT22;28319;48.116;10.818;2024-02-26T08:49:30;5.80;60.80
41985;DHT22;28319;48.116;10.818;2024-02-26T08:54:33;6.00;61.40
41985;DHT22;28319;48.116;10.818;2024-02-26T08:59:35;6.10;61.80
41985;DHT22;28319;48.116;10.818;2024-02-26T09:04:37;6.20;62.20
41985;DHT22;28319;48.116;10.818;2024-02-26T09:09:41;6.50;62.10
41985;DHT22;28319;48.116;10.818;2024-02-26T09:14:43;6.60;61.40
41985;DHT22;28319;48.116;10.818;2024-02-26T09:19:45;6.60;60.70
41985;DHT22;28319;48.116;10.818;2024-02-26T09:24:48;6.80;59.60
41985;DHT22;28319;48.116;10.818;2024-02-26T09:29:51;6.90;59.60
41985;DHT22;28319;48.116;10.818;2024-02-26T09:34:53;7.10;58.80
41985;DHT22;28319;48.116;10.818;2024-02-26T09:39:56;7.20;58.50
41985;DHT22;28319;48.116;10.818;2024-02-26T09:45:00;7.30;55.40
41985;DHT22;28319;48.116;10.818;2024-02-26T09:50:05;7.60;56.40
41985;DHT22;28319;48.116;10.818;2024-02-26T09:55:11;7.70;55.70
41985;DHT22;28319;48.116;10.818;2024-02-26T10:00:17;7.80;52.90
41985;DHT22;28319;48.116;10.818;2024-02-26T10:05:20;7.90;51.40
41985;DHT22;28319;48.116;10.818;2024-02-26T10:10:24;8.40;50.70
41985;DHT22;28319;48.116;10.818;2024-02-26T10:15:28;8.30;51.20
41985;DHT22;28319;48.116;10.818;2024-02-26T10:20:30;8.40;53.50
41985;DHT22;28319;48.116;10.818;2024-02-26T10:25:33;8.40;56.00
41985;DHT22;28319;48.116;10.818;2024-02-26T10:30:36;8.40;55.70
41985;DHT22;28319;48.116;10.818;2024-02-26T10:35:39;8.50;55.70
41985;DHT22;28319;48.116;10.818;2024-02-26T10:40:42;8.60;55.20
41985;DHT22;28319;48.116;10.818;2024-02-26T10:45:44;9.30;56.20
41985;DHT22;28319;48.116;10.818;2024-02-26T10:50:48;8.80;56.20
41985;DHT22;28319;48.116;10.818;2024-02-26T10:55:57;8.90;58.60
41985;DHT22;28319;48.116;10.818;2024-02-26T11:00:59;9.00;57.70
41985;DHT22;28319;48.116;10.818;2024-02-26T11:06:02;9.10;57.60
41985;DHT22;28319;48.116;10.818;2024-02-26T11:11:07;9.60;57.60
41985;DHT22;28319;48.116;10.818;2024-02-26T11:16:09;9.60;56.90
41985;DHT22;28319;48.116;10.818;2024-02-26T11:21:13;9.60;56.70
41985;DHT22;28319;48.116;10.818;2024-02-26T11:26:18;9.80;56.60
41985;DHT22;28319;48.116;10.818;2024-02-26T11:31:24;9.50;56.40
41985;DHT22;28319;48.116;10.818;2024-02-26T11:36:28;9.50;56.40
41985;DHT22;28319;48.116;10.818;2024-02-26T11:41:31;9.90;56.00
41985;DHT22;28319;48.116;10.818;2024-02-26T11:46:38;10.30;55.10
41985;DHT22;28319;48.116;10.818;2024-02-26T11:51:42;10.20;53.90
41985;DHT22;28319;48.116;10.818;2024-02-26T11:56:46;10.30;55.00
41985;DHT22;28319;48.116;10.818;2024-02-26T12:01:48;10.50;54.00
41985;DHT22;28319;48.116;10.818;2024-02-26T12:06:52;11.00;51.70
41985;DHT22;28319;48.116;10.818;2024-02-26T12:11:56;11.00;51.60
41985;DHT22;28319;48.116;10.818;2024-02-26T12:16:58;11.00;51.10
41985;DHT22;28319;48.116;10.818;2024-02-26T12:22:01;11.00;50.70
41985;DHT22;28319;48.116;10.818;2024-02-26T12:27:04;10.70;52.10
41985;DHT22;28319;48.116;10.818;2024-02-26T12:32:06;10.50;53.30
41985;DHT22;28319;48.116;10.818;2024-02-26T12:37:08;10.30;53.60
41985;DHT22;28319;48.116;10.818;2024-02-26T12:42:12;10.40;55.10
41985;DHT22;28319;48.116;10.818;2024-02-26T12:47:15;10.50;54.60
41985;DHT22;28319;48.116;10.818;2024-02-26T12:52:19;10.50;55.00
41985;DHT22;28319;48.116;10.818;2024-02-26T12:57:23;10.40;55.40
41985;DHT22;28319;48.116;10.818;2024-02-26T13:02:26;10.40;55.30
41985;DHT22;28319;48.116;10.818;2024-02-26T13:07:28;10.30;56.00
41985;DHT22;28319;48.116;10.818;2024-02-26T13:12:32;10.20;54.90
41985;DHT22;28319;48.116;10.818;2024-02-26T13:17:34;10.20;56.00
41985;DHT22;28319;48.116;10.818;2024-02-26T13:22:36;10.30;56.40
41985;DHT22;28319;48.116;10.818;2024-02-26T13:27:39;10.30;56.10
41985;DHT22;28319;48.116;10.818;2024-02-26T13:32:41;10.30;56.10
41985;DHT22;28319;48.116;10.818;2024-02-26T13:37:43;10.20;55.50
41985;DHT22;28319;48.116;10.818;2024-02-26T13:42:47;10.30;56.50
41985;DHT22;28319;48.116;10.818;2024-02-26T13:47:49;10.30;56.30
41985;DHT22;28319;48.116;10.818;2024-02-26T13:52:50;10.30;56.10
41985;DHT22;28319;48.116;10.818;2024-02-26T13:57:56;10.30;56.40
41985;DHT22;28319;48.116;10.818;2024-02-26T14:02:58;10.30;55.40
41985;DHT22;28319;48.116;10.818;2024-02-26T14:08:00;10.20;55.20
41985;DHT22;28319;48.116;10.818;2024-02-26T14:13:03;10.20;54.70
41985;DHT22;28319;48.116;10.818;2024-02-26T14:18:07;10.40;55.00
41985;DHT22;28319;48.116;10.818;2024-02-26T14:23:09;10.40;54.10
41985;DHT22;28319;48.116;10.818;2024-02-26T14:28:12;10.50;53.60
41985;DHT22;28319;48.116;10.818;2024-02-26T14:33:14;10.40;52.20
41985;DHT22;28319;48.116;10.818;2024-02-26T14:38:16;10.30;52.10
41985;DHT22;28319;48.116;10.818;2024-02-26T14:43:19;10.20;51.70
41985;DHT22;28319;48.116;10.818;2024-02-26T14:48:21;10.30;52.90
41985;DHT22;28319;48.116;10.818;2024-02-26T14:53:23;10.40;53.90
41985;DHT22;28319;48.116;10.818;2024-02-26T14:58:27;10.40;53.70
41985;DHT22;28319;48.116;10.818;2024-02-26T15:03:28;10.40;52.90
41985;DHT22;28319;48.116;10.818;2024-02-26T15:08:31;10.30;55.10
41985;DHT22;28319;48.116;10.818;2024-02-26T15:13:35;10.40;54.80
41985;DHT22;28319;48.116;10.818;2024-02-26T15:18:37;10.40;55.30
41985;DHT22;28319;48.116;10.818;2024-02-26T15:23:39;10.50;55.80
41985;DHT22;28319;48.116;10.818;2024-02-26T15:28:42;10.30;54.60
41985;DHT22;28319;48.116;10.818;2024-02-26T15:33:44;10.30;55.50
41985;DHT22;28319;48.116;10.818;2024-02-26T15:38:46;10.20;56.10
41985;DHT22;28319;48.116;10.818;2024-02-26T15:43:49;10.20;56.50
41985;DHT22;28319;48.116;10.818;2024-02-26T15:48:52;10.20;56.30
41985;DHT22;28319;48.116;10.818;2024-02-26T15:53:54;10.10;56.70
41985;DHT22;28319;48.116;10.818;2024-02-26T15:58:57;10.00;56.20
41985;DHT22;28319;48.116;10.818;2024-02-26T16:03:59;10.00;55.70
41985;DHT22;28319;48.116;10.818;2024-02-26T16:09:01;9.90;55.00
41985;DHT22;28319;48.116;10.818;2024-02-26T16:14:12;9.80;55.50
41985;DHT22;28319;48.116;10.818;2024-02-26T16:19:16;9.80;56.10
41985;DHT22;28319;48.116;10.818;2024-02-26T16:24:19;9.70;56.90
41985;DHT22;28319;48.116;10.818;2024-02-26T16:29:22;9.70;53.70
41985;DHT22;28319;48.116;10.818;2024-02-26T16:34:24;9.60;53.20
41985;DHT22;28319;48.116;10.818;2024-02-26T16:39:26;9.60;53.90
41985;DHT22;28319;48.116;10.818;2024-02-26T16:44:29;9.50;53.00
41985;DHT22;28319;48.116;10.818;2024-02-26T16:49:31;9.80;53.00
41985;DHT22;28319;48.116;10.818;2024-02-26T16:54:33;10.10;53.90
41985;DHT22;28319;48.116;10.818;2024-02-26T16:59:37;9.50;54.60
41985;DHT22;28319;48.116;10.818;2024-02-26T17:04:40;9.40;53.70
41985;DHT22;28319;48.116;10.818;2024-02-26T17:09:42;9.80;54.60
41985;DHT22;28319;48.116;10.818;2024-02-26T17:14:45;9.40;54.20
41985;DHT22;28319;48.116;10.818;2024-02-26T17:19:49;9.30;54.40
41985;DHT22;28319;48.116;10.818;2024-02-26T17:24:51;9.50;55.00
41985;DHT22;28319;48.116;10.818;2024-02-26T17:29:54;9.50;55.20
41985;DHT22;28319;48.116;10.818;2024-02-26T17:34:56;9.30;56.00
41985;DHT22;28319;48.116;10.818;2024-02-26T17:39:58;9.20;56.60
41985;DHT22;28319;48.116;10.818;2024-02-26T17:45:02;9.10;57.30
41985;DHT22;28319;48.116;10.818;2024-02-26T17:50:05;9.00;58.00
41985;DHT22;28319;48.116;10.818;2024-02-26T17:55:07;8.90;58.40
41985;DHT22;28319;48.116;10.818;2024-02-26T18:00:12;8.80;58.60
41985;DHT22;28319;48.116;10.818;2024-02-26T18:05:14;8.70;58.70
41985;DHT22;28319;48.116;10.818;2024-02-26T18:10:17;8.90;58.60
41985;DHT22;28319;48.116;10.818;2024-02-26T18:15:21;8.50;59.10
41985;DHT22;28319;48.116;10.818;2024-02-26T18:20:23;8.30;58.80
41985;DHT22;28319;48.116;10.818;2024-02-26T18:25:25;8.20;58.00
41985;DHT22;28319;48.116;10.818;2024-02-26T18:30:28;8.30;57.40
41985;DHT22;28319;48.116;10.818;2024-02-26T18:35:30;8.50;57.40
41985;DHT22;28319;48.116;10.818;2024-02-26T18:40:32;8.30;57.10
41985;DHT22;28319;48.116;10.818;2024-02-26T18:45:35;8.30;57.50
41985;DHT22;28319;48.116;10.818;2024-02-26T18:50:38;8.20;58.40
41985;DHT22;28319;48.116;10.818;2024-02-26T18:55:41;8.20;59.30
41985;DHT22;28319;48.116;10.818;2024-02-26T19:00:44;8.20;60.20
41985;DHT22;28319;48.116;10.818;2024-02-26T19:05:47;7.60;60.50
41985;DHT22;28319;48.116;10.818;2024-02-26T19:10:49;7.90;60.70
41985;DHT22;28319;48.116;10.818;2024-02-26T19:15:52;7.90;61.10
41985;DHT22;28319;48.116;10.818;2024-02-26T19:20:54;7.80;60.70
41985;DHT22;28319;48.116;10.818;2024-02-26T19:25:56;8.00;60.10
41985;DHT22;28319;48.116;10.818;2024-02-26T19:31:01;7.70;60.90
41985;DHT22;28319;48.116;10.818;2024-02-26T19:36:03;7.80;61.00
41985;DHT22;28319;48.116;10.818;2024-02-26T19:41:05;7.50;61.70
41985;DHT22;28319;48.116;10.818;2024-02-26T19:46:08;7.60;61.40
41985;DHT22;28319;48.116;10.818;2024-02-26T19:51:16;7.60;61.30
41985;DHT22;28319;48.116;10.818;2024-02-26T19:56:18;7.50;62.10
41985;DHT22;28319;48.116;10.818;2024-02-26T20:01:23;7.60;63.00
41985;DHT22;28319;48.116;10.818;2024-02-26T20:06:25;7.20;64.00
41985;DHT22;28319;48.116;10.818;2024-02-26T20:11:27;7.30;63.60
41985;DHT22;28319;48.116;10.818;2024-02-26T20:16:30;7.30;64.10
41985;DHT22;28319;48.116;10.818;2024-02-26T20:21:32;7.40;63.10
41985;DHT22;28319;48.116;10.818;2024-02-26T20:26:34;7.30;64.50
41985;DHT22;28319;48.116;10.818;2024-02-26T20:31:38;7.20;65.00
41985;DHT22;28319;48.116;10.818;2024-02-26T20:36:40;7.60;65.70
41985;DHT22;28319;48.116;10.818;2024-02-26T20:41:42;7.10;65.50
41985;DHT22;28319;48.116;10.818;2024-02-26T20:46:45;7.00;65.20
41985;DHT22;28319;48.116;10.818;2024-02-26T20:51:47;6.80;66.40
41985;DHT22;28319;48.116;10.818;2024-02-26T20:56:49;6.90;67.20
41985;DHT22;28319;48.116;10.818;2024-02-26T21:01:52;6.60;66.80
41985;DHT22;28319;48.116;10.818;2024-02-26T21:06:54;6.70;66.10
41985;DHT22;28319;48.116;10.818;2024-02-26T21:11:56;6.70;65.30
41985;DHT22;28319;48.116;10.818;2024-02-26T21:16:59;7.20;66.00
41985;DHT22;28319;48.116;10.818;2024-02-26T21:22:01;6.80;66.00
41985;DHT22;28319;48.116;10.818;2024-02-26T21:27:03;6.30;65.60
41985;DHT22;28319;48.116;10.818;2024-02-26T21:32:07;6.20;66.40
41985;DHT22;28319;48.116;10.818;2024-02-26T21:37:10;6.00;67.20
41985;DHT22;28319;48.116;10.818;2024-02-26T21:42:12;5.90;68.30
41985;DHT22;28319;48.116;10.818;2024-02-26T21:47:16;5.90;67.60
41985;DHT22;28319;48.116;10.818;2024-02-26T21:52:18;6.10;66.80
41985;DHT22;28319;48.116;10.818;2024-02-26T21:57:19;5.90;67.90
41985;DHT22;28319;48.116;10.818;2024-02-26T22:02:23;5.80;68.10
41985;DHT22;28319;48.116;10.818;2024-02-26T22:07:25;5.80;68.50
41985;DHT22;28319;48.116;10.818;2024-02-26T22:12:27;5.70;69.40
41985;DHT22;28319;48.116;10.818;2024-02-26T22:17:30;5.60;70.50
41985;DHT22;28319;48.116;10.818;2024-02-26T22:22:32;5.60;69.60
41985;DHT22;28319;48.116;10.818;2024-02-26T22:27:34;5.70;69.50
41985;DHT22;28319;48.116;10.818;2024-02-26T22:32:37;5.80;68.90
41985;DHT22;28319;48.116;10.818;2024-02-26T22:37:39;5.80;68.20
41985;DHT22;28319;48.116;10.818;2024-02-26T22:42:41;6.00;66.20
41985;DHT22;28319;48.116;10.818;2024-02-26T22:47:44;6.30;69.50
41985;DHT22;28319;48.116;10.818;2024-02-26T22:52:46;6.00;66.40
41985;DHT22;28319;48.116;10.818;2024-02-26T22:57:50;6.10;65.20
41985;DHT22;28319;48.116;10.818;2024-02-26T23:02:53;6.20;64.30
41985;DHT22;28319;48.116;10.818;2024-02-26T23:07:56;6.20;64.20
41985;DHT22;28319;48.116;10.818;2024-02-26T23:12:58;6.10;65.30
41985;DHT22;28319;48.116;10.818;2024-02-26T23:18:01;6.20;64.30
41985;DHT22;28319;48.116;10.818;2024-02-26T23:23:03;6.20;65.30
41985;DHT22;28319;48.116;10.818;2024-02-26T23:28:05;5.70;68.70
41985;DHT22;28319;48.116;10.818;2024-02-26T23:33:10;5.60;68.80
41985;DHT22;28319;48.116;10.818;2024-02-26T23:38:12;5.90;66.10
41985;DHT22;28319;48.116;10.818;2024-02-26T23:43:14;6.00;64.80
41985;DHT22;28319;48.116;10.818;2024-02-26T23:48:17;6.00;64.50
41985;DHT22;28319;48.116;10.818;2024-02-26T23:53:19;6.00;64.20
41985;DHT22;28319;48.116;10.818;2024-02-26T23:58:21;6.10;64.00
